Time;durP1;ratioP1;P1;durP2;ratioP2;P2;SDS_P1;SDS_P2;PMS_P1;PMS_P2;Temp;Humidity;BMP_temperature;BMP_pressure;BME280_temperature;BME280_humidity;BME280_pressure;Samples;Min_cycle;Max_cycle;Signal;HPM_P1;HPM_P2
2023/07/04 00:00:58;;;;;;;7.65;2.53;;;13.10;99.90;;;;;;5044793;28;20037;-78
2023/07/04 00:03:24;;;;;;;5.07;2.63;;;13.10;99.90;;;;;;5055892;28;20126;-78
2023/07/04 00:05:50;;;;;;;4.85;2.42;;;13.10;99.90;;;;;;5063788;28;20021;-78
2023/07/04 00:08:15;;;;;;;8.30;2.60;;;13.00;99.90;;;;;;5057264;28;20033;-78
2023/07/04 00:10:42;;;;;;;3.08;1.98;;;13.00;99.90;;;;;;5065261;28;20025;-79
2023/07/04 00:13:08;;;;;;;3.65;2.30;;;13.00;99.90;;;;;;5041862;28;20101;-78
2023/07/04 00:15:33;;;;;;;5.80;2.33;;;13.00;99.90;;;;;;5032222;28;20033;-79
2023/07/04 00:17:59;;;;;;;2.97;1.98;;;13.00;99.90;;;;;;5048007;28;20487;-78
2023/07/04 00:20:25;;;;;;;4.50;2.08;;;12.90;99.90;;;;;;5051269;28;20032;-78
2023/07/04 00:22:51;;;;;;;7.35;2.40;;;13.00;99.90;;;;;;5044812;28;20013;-78
2023/07/04 00:25:18;;;;;;;6.57;2.75;;;13.00;99.90;;;;;;5035604;28;20032;-78
2023/07/04 00:27:43;;;;;;;5.53;2.88;;;12.90;99.90;;;;;;5016631;28;20033;-78
2023/07/04 00:30:10;;;;;;;4.63;2.53;;;12.90;99.90;;;;;;5029192;28;20030;-78
2023/07/04 00:32:36;;;;;;;4.85;2.28;;;12.90;99.90;;;;;;5046415;28;20083;-78
2023/07/04 00:35:02;;;;;;;5.35;2.53;;;12.90;99.90;;;;;;5047624;28;20025;-78
2023/07/04 00:37:28;;;;;;;4.25;2.50;;;12.90;99.90;;;;;;5027439;28;20032;-78
2023/07/04 00:39:54;;;;;;;4.10;1.95;;;13.00;99.90;;;;;;5045628;28;20033;-78
2023/07/04 00:42:21;;;;;;;4.65;2.15;;;12.90;99.90;;;;;;5043380;28;20018;-79
2023/07/04 00:44:54;;;;;;;3.65;1.92;;;12.90;99.90;;;;;;5038110;28;20021;-79
2023/07/04 00:47:32;;;;;;;5.82;2.45;;;12.90;99.90;;;;;;5048784;28;20041;-78
2023/07/04 00:50:06;;;;;;;4.30;2.05;;;12.90;99.90;;;;;;5046997;28;20028;-78
2023/07/04 00:52:34;;;;;;;7.88;2.75;;;12.90;99.90;;;;;;5049496;28;20021;-78
2023/07/04 00:55:05;;;;;;;5.05;2.78;;;12.90;99.90;;;;;;5047721;28;20100;-79
2023/07/04 00:57:33;;;;;;;5.22;2.30;;;12.90;99.90;;;;;;5041200;28;20026;-78
2023/07/04 01:00:12;;;;;;;5.95;2.60;;;12.90;99.90;;;;;;5024103;28;20029;-78
2023/07/04 01:02:38;;;;;;;5.68;2.72;;;12.90;99.90;;;;;;5021480;28;20036;-78
2023/07/04 01:05:04;;;;;;;5.35;3.08;;;12.90;99.90;;;;;;5045071;28;20017;-78
2023/07/04 01:07:58;;;;;;;7.60;3.05;;;12.90;99.90;;;;;;5043963;28;20029;-77
2023/07/04 01:10:42;;;;;;;6.00;2.40;;;12.90;99.90;;;;;;5029390;28;20470;-78
2023/07/04 01:13:33;;;;;;;4.82;2.30;;;12.90;99.90;;;;;;5029620;28;20031;-80
2023/07/04 01:16:00;;;;;;;7.53;2.30;;;12.90;99.90;;;;;;5041834;28;20032;-78
2023/07/04 01:18:26;;;;;;;3.85;2.30;;;12.90;99.90;;;;;;5043247;28;20073;-78
2023/07/04 01:20:52;;;;;;;6.25;2.35;;;12.90;99.90;;;;;;5049697;28;20060;-78
2023/07/04 01:23:35;;;;;;;4.95;2.92;;;12.90;99.90;;;;;;5025856;28;20017;-78
2023/07/04 01:26:37;;;;;;;2.17;1.98;;;12.90;99.90;;;;;;5046768;28;20016;-78
2023/07/04 01:29:06;;;;;;;6.88;2.97;;;12.90;99.90;;;;;;5032869;28;20021;-77
2023/07/04 01:31:35;;;;;;;6.03;1.95;;;12.90;99.90;;;;;;5055744;28;20041;-78
2023/07/04 01:34:04;;;;;;;3.55;2.28;;;12.80;99.90;;;;;;5041008;28;20089;-77
2023/07/04 01:36:32;;;;;;;3.60;2.15;;;12.80;99.90;;;;;;5044512;28;20306;-78
2023/07/04 01:38:58;;;;;;;4.68;1.90;;;12.80;99.90;;;;;;5044561;28;20029;-78
2023/07/04 01:41:24;;;;;;;5.97;2.63;;;12.80;99.90;;;;;;5051468;28;20033;-79
2023/07/04 01:44:02;;;;;;;7.82;2.65;;;12.80;99.90;;;;;;5042336;28;20017;-78
2023/07/04 01:46:28;;;;;;;4.15;2.13;;;12.80;99.90;;;;;;5049273;28;20112;-79
2023/07/04 01:48:55;;;;;;;7.75;2.22;;;12.80;99.90;;;;;;5041654;28;20049;-78
2023/07/04 01:51:30;;;;;;;7.05;2.38;;;12.80;99.90;;;;;;5039135;28;20095;-78
2023/07/04 01:53:56;;;;;;;9.50;2.55;;;12.80;99.90;;;;;;5021287;28;20124;-78
2023/07/04 01:56:21;;;;;;;4.70;1.98;;;12.80;99.90;;;;;;5016658;28;20120;-78
2023/07/04 01:58:47;;;;;;;6.43;2.45;;;12.80;99.90;;;;;;5027587;28;20032;-77
2023/07/04 02:01:12;;;;;;;4.93;2.03;;;12.80;99.90;;;;;;5040089;28;20053;-79
2023/07/04 02:03:38;;;;;;;2.83;1.88;;;12.70;99.90;;;;;;5022371;28;20133;-79
2023/07/04 02:06:03;;;;;;;5.63;1.92;;;12.70;99.90;;;;;;5021764;28;20033;-79
2023/07/04 02:08:29;;;;;;;8.32;2.33;;;12.70;99.90;;;;;;5041511;28;20064;-79
2023/07/04 02:10:55;;;;;;;5.53;1.70;;;12.70;99.90;;;;;;5041972;28;20475;-79
2023/07/04 02:13:20;;;;;;;3.70;1.83;;;12.70;99.90;;;;;;5037823;28;20021;-79
2023/07/04 02:15:46;;;;;;;4.20;1.35;;;12.70;99.90;;;;;;5023003;28;20017;-79
2023/07/04 02:18:11;;;;;;;2.38;1.52;;;12.60;99.90;;;;;;5049702;28;20074;-79
2023/07/04 02:20:37;;;;;;;6.40;1.77;;;12.50;99.90;;;;;;5038214;28;20587;-80
2023/07/04 02:23:02;;;;;;;4.03;2.47;;;12.50;99.90;;;;;;5026203;28;20031;-78
2023/07/04 02:25:28;;;;;;;6.45;2.05;;;12.50;99.90;;;;;;5038055;28;20029;-78
2023/07/04 02:27:53;;;;;;;3.17;1.60;;;12.50;99.90;;;;;;5021064;28;20112;-79
2023/07/04 02:30:19;;;;;;;5.78;2.10;;;12.40;99.90;;;;;;5022486;28;20053;-79
2023/07/04 02:32:44;;;;;;;3.65;1.45;;;12.40;99.90;;;;;;5023786;28;20025;-78
2023/07/04 02:35:10;;;;;;;3.10;1.50;;;12.40;99.90;;;;;;5030607;28;20029;-79
2023/07/04 02:37:35;;;;;;;8.43;1.80;;;12.40;99.90;;;;;;5040960;28;20036;-78
2023/07/04 02:40:01;;;;;;;4.80;1.42;;;12.40;99.90;;;;;;5043139;28;20408;-78
2023/07/04 02:42:27;;;;;;;8.25;1.75;;;12.40;99.90;;;;;;5041753;28;20025;-78
2023/07/04 02:44:52;;;;;;;5.20;1.75;;;12.30;99.90;;;;;;5043153;28;20025;-78
2023/07/04 02:47:18;;;;;;;5.22;1.40;;;12.30;99.90;;;;;;5038476;28;20024;-78
2023/07/04 02:49:44;;;;;;;4.90;1.58;;;12.30;99.90;;;;;;5017719;28;20017;-78
2023/07/04 02:52:10;;;;;;;7.13;2.22;;;12.20;99.90;;;;;;5042899;28;20022;-78
2023/07/04 02:54:35;;;;;;;3.47;1.35;;;12.20;99.90;;;;;;5029762;28;20029;-78
2023/07/04 02:57:01;;;;;;;2.13;1.13;;;12.10;99.90;;;;;;5044455;28;20448;-78
2023/07/04 02:59:27;;;;;;;4.40;1.90;;;12.20;99.90;;;;;;5042725;28;20033;-79
2023/07/04 03:01:53;;;;;;;4.30;2.00;;;12.10;99.90;;;;;;5045510;28;20557;-79
2023/07/04 03:04:19;;;;;;;4.00;1.67;;;12.20;99.90;;;;;;5023751;28;20025;-79
2023/07/04 03:06:45;;;;;;;3.50;1.58;;;12.10;99.90;;;;;;5040638;28;20078;-79
2023/07/04 03:09:11;;;;;;;4.47;1.92;;;12.10;99.90;;;;;;5045693;28;20025;-79
2023/07/04 03:11:36;;;;;;;4.32;1.50;;;12.10;99.90;;;;;;5023150;28;20032;-79
2023/07/04 03:14:02;;;;;;;3.72;1.38;;;12.10;99.90;;;;;;5046862;28;20357;-79
2023/07/04 03:16:27;;;;;;;6.50;1.77;;;12.10;99.90;;;;;;5044836;28;20093;-79
2023/07/04 03:18:53;;;;;;;5.97;2.08;;;12.00;99.90;;;;;;5048591;28;20039;-78
2023/07/04 03:21:20;;;;;;;6.25;2.05;;;12.00;99.90;;;;;;5027819;28;20123;-78
2023/07/04 03:23:46;;;;;;;3.88;1.52;;;12.00;99.90;;;;;;5023155;28;20040;-78
2023/07/04 03:26:11;;;;;;;4.75;1.58;;;12.00;99.90;;;;;;5044386;28;20473;-78
2023/07/04 03:28:37;;;;;;;3.47;1.83;;;11.90;99.90;;;;;;5036104;28;20022;-78
2023/07/04 03:31:03;;;;;;;3.88;2.13;;;11.90;99.90;;;;;;5030366;28;20044;-78
2023/07/04 03:33:28;;;;;;;8.30;1.75;;;11.90;99.90;;;;;;5047064;28;20032;-78
2023/07/04 03:35:54;;;;;;;2.50;1.08;;;11.90;99.90;;;;;;5042689;28;20028;-78
2023/07/04 03:38:19;;;;;;;5.88;1.70;;;11.90;99.90;;;;;;5048429;28;20025;-78
2023/07/04 03:40:45;;;;;;;4.43;1.65;;;11.90;99.90;;;;;;5044257;28;20373;-78
2023/07/04 03:43:10;;;;;;;6.18;1.38;;;11.90;99.90;;;;;;5047594;28;20495;-78
2023/07/04 03:45:36;;;;;;;2.53;1.08;;;11.90;99.90;;;;;;5046195;28;20025;-79
2023/07/04 03:48:01;;;;;;;3.67;1.50;;;11.90;99.90;;;;;;5044470;28;20029;-79
2023/07/04 03:50:28;;;;;;;4.53;1.65;;;11.90;99.90;;;;;;5030467;28;20482;-78
2023/07/04 03:52:53;;;;;;;4.57;1.85;;;11.90;99.90;;;;;;5020895;28;20064;-79
2023/07/04 03:55:19;;;;;;;4.25;1.75;;;12.00;99.90;;;;;;5041754;28;20025;-78
2023/07/04 03:57:44;;;;;;;4.82;1.73;;;12.00;99.90;;;;;;5040757;28;20077;-79
2023/07/04 04:00:11;;;;;;;5.82;1.50;;;11.90;99.90;;;;;;5033146;28;20116;-79
2023/07/04 04:02:36;;;;;;;4.53;1.80;;;11.90;99.90;;;;;;5044414;28;20047;-79
2023/07/04 04:05:02;;;;;;;5.75;2.03;;;12.00;99.90;;;;;;5024686;28;20104;-78
2023/07/04 04:07:28;;;;;;;4.18;1.58;;;12.00;99.90;;;;;;5026122;28;20080;-78
2023/07/04 04:09:53;;;;;;;5.25;1.63;;;12.00;99.90;;;;;;5041579;28;20401;-79
2023/07/04 04:12:19;;;;;;;6.75;1.63;;;12.00;99.90;;;;;;5025596;28;20461;-78
2023/07/04 04:14:44;;;;;;;4.38;2.10;;;12.00;99.90;;;;;;5028207;28;20033;-80
2023/07/04 04:17:10;;;;;;;6.18;2.03;;;12.10;99.90;;;;;;5049024;28;20029;-79
2023/07/04 04:19:35;;;;;;;3.70;1.92;;;12.10;99.90;;;;;;5044980;28;20040;-79
2023/07/04 04:22:01;;;;;;;4.88;1.80;;;12.10;99.90;;;;;;5038379;28;20037;-78
2023/07/04 04:24:27;;;;;;;7.07;2.10;;;12.20;99.90;;;;;;5037833;28;20025;-79
2023/07/04 04:26:52;;;;;;;10.07;2.58;;;12.20;99.90;;;;;;5045448;28;20096;-79
2023/07/04 04:29:19;;;;;;;6.25;2.17;;;12.30;99.90;;;;;;5025606;28;20041;-79
2023/07/04 04:31:47;;;;;;;5.88;2.20;;;12.30;99.90;;;;;;5027979;28;20037;-79
2023/07/04 04:34:13;;;;;;;6.93;1.88;;;12.40;99.90;;;;;;5048945;28;20028;-78
2023/07/04 04:36:39;;;;;;;3.25;2.20;;;12.40;99.90;;;;;;5044161;28;20380;-78
2023/07/04 04:39:05;;;;;;;3.35;2.15;;;12.50;99.90;;;;;;5044895;28;20029;-78
2023/07/04 04:41:32;;;;;;;5.28;3.38;;;12.60;99.90;;;;;;5047335;28;20025;-79
2023/07/04 04:43:59;;;;;;;4.78;2.40;;;12.60;99.90;;;;;;5021467;28;20404;-77
2023/07/04 04:46:24;;;;;;;5.78;2.35;;;12.60;99.90;;;;;;5019075;28;20032;-78
2023/07/04 04:48:50;;;;;;;5.03;2.03;;;12.60;99.90;;;;;;5044908;28;20025;-78
2023/07/04 04:51:16;;;;;;;3.65;2.30;;;12.70;99.90;;;;;;5049675;28;20033;-78
2023/07/04 04:53:44;;;;;;;6.45;2.03;;;12.70;99.90;;;;;;5045586;28;20091;-78
2023/07/04 04:56:11;;;;;;;3.90;2.22;;;12.70;99.90;;;;;;5042828;28;20018;-78
2023/07/04 04:58:37;;;;;;;6.28;2.45;;;12.70;99.90;;;;;;5043273;28;20063;-77
2023/07/04 05:01:10;;;;;;;6.80;2.35;;;12.80;99.90;;;;;;5038852;28;20071;-78
2023/07/04 05:03:35;;;;;;;4.65;2.00;;;12.80;99.90;;;;;;5022779;28;20536;-78
2023/07/04 05:06:02;;;;;;;4.60;2.17;;;12.80;99.90;;;;;;5040038;28;20063;-79
2023/07/04 05:08:28;;;;;;;6.55;2.47;;;12.80;99.90;;;;;;5034126;28;20017;-79
2023/07/04 05:11:04;;;;;;;5.30;2.30;;;12.80;99.90;;;;;;5030758;28;20035;-79
2023/07/04 05:13:30;;;;;;;2.40;2.00;;;12.90;99.90;;;;;;5037980;28;20483;-78
2023/07/04 05:16:00;;;;;;;4.80;2.25;;;12.90;99.90;;;;;;5050509;28;20357;-78
2023/07/04 05:18:27;;;;;;;8.77;3.03;;;12.90;99.90;;;;;;5035519;28;20013;-78
2023/07/04 05:21:03;;;;;;;5.18;1.98;;;13.00;99.90;;;;;;5043869;28;20052;-78
2023/07/04 05:23:29;;;;;;;3.10;2.28;;;13.00;99.90;;;;;;5044196;28;20048;-78
2023/07/04 05:26:22;;;;;;;5.70;2.40;;;13.10;99.90;;;;;;5041320;28;20100;-79
2023/07/04 05:28:49;;;;;;;17.92;2.92;;;13.20;99.90;;;;;;5016603;28;20033;-78
2023/07/04 05:31:17;;;;;;;6.70;2.50;;;13.20;99.90;;;;;;5022372;28;20029;-79
2023/07/04 05:33:44;;;;;;;5.68;2.10;;;13.30;99.90;;;;;;5029956;28;20026;-79
2023/07/04 05:36:38;;;;;;;4.18;1.90;;;13.40;99.90;;;;;;5044061;28;20025;-77
2023/07/04 05:39:06;;;;;;;3.15;1.60;;;13.50;99.90;;;;;;5029992;28;20192;-77
2023/07/04 05:41:34;;;;;;;6.28;2.63;;;13.50;99.90;;;;;;5047346;28;20022;-77
2023/07/04 05:44:02;;;;;;;6.43;2.40;;;13.60;99.90;;;;;;5024936;28;20527;-78
2023/07/04 05:46:28;;;;;;;7.05;1.80;;;13.70;99.90;;;;;;5026229;28;20033;-79
2023/07/04 05:48:53;;;;;;;5.15;2.03;;;13.80;99.90;;;;;;5015919;28;20370;-78
2023/07/04 05:51:20;;;;;;;4.60;2.03;;;13.90;99.90;;;;;;5026570;28;20064;-78
2023/07/04 05:53:50;;;;;;;3.15;1.63;;;14.00;99.90;;;;;;5025273;28;20354;-78
2023/07/04 05:56:20;;;;;;;5.18;1.40;;;14.10;99.90;;;;;;5037672;28;20056;-79
2023/07/04 05:58:54;;;;;;;6.47;2.25;;;14.20;99.90;;;;;;5024956;28;20049;-79
2023/07/04 06:01:28;;;;;;;4.80;1.83;;;14.30;99.90;;;;;;5025815;28;20109;-78
2023/07/04 06:03:55;;;;;;;4.78;1.83;;;14.40;99.90;;;;;;5028338;28;20047;-79
2023/07/04 06:06:32;;;;;;;5.60;2.00;;;14.60;99.90;;;;;;5045716;28;20026;-78
2023/07/04 06:08:59;;;;;;;5.90;1.95;;;14.60;99.90;;;;;;5048430;28;20476;-80
2023/07/04 06:11:29;;;;;;;8.27;2.33;;;14.70;99.90;;;;;;5027141;28;20022;-79
2023/07/04 06:13:55;;;;;;;4.68;1.52;;;14.80;99.90;;;;;;5026463;28;20124;-81
2023/07/04 06:16:21;;;;;;;7.07;2.85;;;14.90;99.90;;;;;;5045327;28;20017;-80
2023/07/04 06:18:47;;;;;;;3.28;1.67;;;15.00;99.90;;;;;;5027636;28;20021;-79
2023/07/04 06:21:17;;;;;;;6.65;1.98;;;15.20;99.90;;;;;;5040926;28;20112;-79
2023/07/04 06:23:43;;;;;;;5.05;1.95;;;15.20;99.90;;;;;;5027939;28;20017;-79
2023/07/04 06:26:10;;;;;;;5.85;1.88;;;15.30;99.90;;;;;;5043884;28;20025;-79
2023/07/04 06:28:36;;;;;;;4.90;1.55;;;15.50;99.90;;;;;;5026950;28;20018;-80
2023/07/04 06:31:07;;;;;;;5.10;2.28;;;15.60;99.90;;;;;;5019620;28;20056;-78
2023/07/04 06:33:33;;;;;;;7.25;1.80;;;15.70;99.90;;;;;;5047878;28;20093;-80
2023/07/04 06:36:00;;;;;;;4.00;1.90;;;15.80;99.90;;;;;;5027553;28;20029;-80
2023/07/04 06:38:26;;;;;;;2.88;1.27;;;15.90;99.90;;;;;;5040049;28;20099;-79
2023/07/04 06:41:03;;;;;;;3.00;1.65;;;16.00;99.90;;;;;;5046698;28;20056;-78
2023/07/04 06:43:30;;;;;;;3.25;1.20;;;16.10;99.90;;;;;;5023433;28;20557;-81
2023/07/04 06:45:57;;;;;;;8.85;2.10;;;16.20;99.90;;;;;;5039044;28;20029;-80
2023/07/04 06:48:23;;;;;;;3.67;2.00;;;16.20;99.90;;;;;;5027941;28;20017;-80
2023/07/04 06:50:59;;;;;;;5.72;2.05;;;16.30;99.90;;;;;;5035181;28;20031;-80
2023/07/04 06:53:26;;;;;;;2.88;1.45;;;16.30;99.90;;;;;;5047150;28;20021;-79
2023/07/04 06:55:52;;;;;;;3.17;1.92;;;16.30;99.90;;;;;;5037128;28;20037;-78
2023/07/04 06:58:18;;;;;;;4.32;1.83;;;16.30;99.90;;;;;;5028317;28;20033;-80
2023/07/04 07:00:44;;;;;;;3.88;1.55;;;16.40;99.90;;;;;;5041333;28;20102;-80
2023/07/04 07:03:09;;;;;;;5.25;2.38;;;16.50;99.90;;;;;;5021984;28;20025;-78
2023/07/04 07:05:39;;;;;;;4.93;1.52;;;16.70;99.90;;;;;;5029894;28;20028;-80
2023/07/04 07:08:04;;;;;;;4.78;1.63;;;16.90;99.90;;;;;;5046110;28;20025;-79
2023/07/04 07:10:31;;;;;;;6.07;1.75;;;17.00;99.90;;;;;;5025982;28;20017;-80
2023/07/04 07:12:57;;;;;;;4.90;1.67;;;17.10;99.90;;;;;;5015168;28;20021;-80
2023/07/04 07:15:25;;;;;;;3.58;1.60;;;17.00;99.90;;;;;;5042582;28;20052;-79
2023/07/04 07:17:50;;;;;;;2.88;1.30;;;17.00;99.90;;;;;;5032874;28;20045;-81
2023/07/04 07:20:16;;;;;;;5.05;2.10;;;17.00;99.90;;;;;;5023590;28;20103;-81
2023/07/04 07:22:41;;;;;;;4.32;1.50;;;17.00;99.90;;;;;;5050505;28;20504;-80
2023/07/04 07:25:07;;;;;;;4.82;1.50;;;17.00;99.90;;;;;;5030063;28;20041;-79
2023/07/04 07:27:32;;;;;;;4.95;1.58;;;16.90;99.90;;;;;;5040687;28;20017;-81
2023/07/04 07:29:58;;;;;;;5.00;2.13;;;17.00;99.90;;;;;;5043078;28;20737;-81
2023/07/04 07:32:23;;;;;;;4.25;1.40;;;16.90;99.90;;;;;;5043600;28;20037;-80
2023/07/04 07:34:49;;;;;;;2.10;1.52;;;17.00;99.90;;;;;;5032155;28;20025;-79
2023/07/04 07:37:15;;;;;;;5.70;1.90;;;17.10;99.90;;;;;;5030621;28;20170;-80
2023/07/04 07:39:42;;;;;;;2.75;1.52;;;17.20;99.90;;;;;;5032583;28;20060;-81
2023/07/04 07:42:07;;;;;;;2.97;1.80;;;17.30;99.90;;;;;;5028868;28;20499;-79
2023/07/04 07:44:34;;;;;;;4.57;1.52;;;17.30;99.90;;;;;;5025720;28;20128;-79
2023/07/04 07:46:59;;;;;;;3.70;1.95;;;17.30;99.90;;;;;;5031436;28;20461;-79
2023/07/04 07:49:25;;;;;;;6.53;1.80;;;17.30;99.90;;;;;;5046594;28;20068;-79
2023/07/04 07:51:50;;;;;;;3.30;1.58;;;17.50;99.90;;;;;;5032992;28;20400;-80
2023/07/04 07:54:16;;;;;;;5.38;1.65;;;17.60;99.90;;;;;;5027039;28;20037;-80
2023/07/04 07:56:44;;;;;;;3.10;1.88;;;17.80;99.90;;;;;;5046361;28;20132;-78
2023/07/04 07:59:11;;;;;;;4.93;1.90;;;18.00;99.90;;;;;;5052735;28;20078;-79
2023/07/04 08:01:37;;;;;;;5.68;2.03;;;18.10;99.90;;;;;;5042391;28;20084;-80
2023/07/04 08:04:05;;;;;;;5.78;1.63;;;18.30;99.90;;;;;;5046551;28;20031;-80
2023/07/04 08:06:50;;;;;;;6.00;2.00;;;18.30;99.90;;;;;;5028225;28;20540;-79
2023/07/04 08:09:18;;;;;;;5.18;2.10;;;18.30;99.90;;;;;;5028517;28;20395;-79
2023/07/04 08:11:48;;;;;;;4.07;2.00;;;18.50;99.90;;;;;;5049177;28;20101;-81
2023/07/04 08:14:15;;;;;;;3.03;1.77;;;18.50;99.90;;;;;;5046797;28;20051;-80
2023/07/04 08:16:42;;;;;;;2.70;1.67;;;18.50;99.90;;;;;;5029585;28;20207;-79
2023/07/04 08:19:08;;;;;;;4.45;1.77;;;18.40;99.90;;;;;;5020854;28;20069;-80
2023/07/04 08:21:33;;;;;;;4.30;1.90;;;18.20;99.90;;;;;;5017802;28;20048;-79
2023/07/04 08:23:59;;;;;;;3.92;1.80;;;18.10;99.90;;;;;;5030113;28;20373;-80
2023/07/04 08:26:26;;;;;;;4.00;1.55;;;18.10;99.90;;;;;;5027599;28;20040;-79
2023/07/04 08:28:53;;;;;;;3.83;1.70;;;18.30;99.90;;;;;;5031607;28;20621;-81
2023/07/04 08:31:20;;;;;;;4.30;1.67;;;18.50;99.90;;;;;;5028780;28;20093;-80
2023/07/04 08:33:46;;;;;;;1.92;1.45;;;18.50;99.90;;;;;;5049397;28;20039;-79
2023/07/04 08:36:13;;;;;;;3.67;1.95;;;18.60;99.90;;;;;;5023227;28;20025;-80
2023/07/04 08:38:39;;;;;;;4.20;1.45;;;18.60;99.90;;;;;;5041709;28;20013;-80
2023/07/04 08:41:19;;;;;;;5.68;1.85;;;18.60;99.90;;;;;;5048336;28;20055;-80
2023/07/04 08:43:52;;;;;;;3.90;2.15;;;18.60;99.90;;;;;;5025625;28;20078;-78
2023/07/04 08:46:20;;;;;;;2.53;1.40;;;18.60;99.90;;;;;;5030816;28;20224;-78
2023/07/04 08:48:46;;;;;;;3.55;1.50;;;18.60;99.90;;;;;;5046163;28;20104;-80
2023/07/04 08:51:32;;;;;;;3.90;1.73;;;18.60;99.90;;;;;;5031516;28;20049;-77
2023/07/04 08:54:02;;;;;;;3.17;1.15;;;18.60;99.90;;;;;;5039602;28;20075;-79
2023/07/04 08:56:33;;;;;;;3.72;1.50;;;18.60;99.90;;;;;;5043070;28;20108;-78
2023/07/04 08:59:08;;;;;;;3.72;1.38;;;18.80;99.90;;;;;;5038886;28;20404;-78
2023/07/04 09:01:51;;;;;;;5.53;1.40;;;18.90;99.90;;;;;;5044591;28;20034;-80
2023/07/04 09:04:46;;;;;;;2.10;0.90;;;18.90;99.90;;;;;;5024869;28;20476;-80
2023/07/04 09:07:38;;;;;;;3.20;1.10;;;19.00;99.90;;;;;;5015824;28;20129;-79
2023/07/04 09:10:26;;;;;;;2.20;1.05;;;19.10;99.90;;;;;;5033307;28;20090;-79
2023/07/04 09:12:52;;;;;;;2.13;1.20;;;19.20;99.90;;;;;;5020862;28;20033;-80
2023/07/04 09:15:36;;;;;;;2.72;1.40;;;19.00;99.90;;;;;;5021686;28;20037;-79
2023/07/04 09:18:39;;;;;;;1.35;1.10;;;18.80;99.90;;;;;;5038409;28;20503;-79
2023/07/04 09:21:14;;;;;;;5.57;1.40;;;18.60;99.90;;;;;;5019960;28;20026;-78
2023/07/04 09:23:40;;;;;;;3.28;1.23;;;18.30;99.90;;;;;;5022125;28;20017;-78
2023/07/04 09:26:13;;;;;;;3.10;1.42;;;18.10;99.90;;;;;;5026827;28;20159;-78
2023/07/04 09:28:42;;;;;;;1.45;0.80;;;17.70;99.90;;;;;;5037781;28;20496;-79
2023/07/04 09:31:17;;;;;;;2.20;0.80;;;17.30;99.90;;;;;;5029352;28;20052;-78
2023/07/04 09:33:46;;;;;;;0.60;0.53;;;17.00;99.90;;;;;;5057486;28;20436;-78
2023/07/04 09:36:13;;;;;;;1.10;0.70;;;17.00;99.90;;;;;;5059915;28;20618;-78
2023/07/04 09:38:58;;;;;;;1.60;0.77;;;17.00;99.90;;;;;;5044804;28;20392;-78
2023/07/04 09:41:32;;;;;;;2.30;0.90;;;17.10;99.90;;;;;;5040079;28;20111;-79
2023/07/04 09:44:14;;;;;;;1.90;0.80;;;17.40;99.90;;;;;;5021822;28;20439;-78
2023/07/04 09:46:45;;;;;;;1.30;0.80;;;17.50;99.90;;;;;;5040287;28;20028;-79
2023/07/04 09:49:24;;;;;;;2.28;0.93;;;17.70;99.90;;;;;;5041021;28;20017;-79
2023/07/04 09:52:02;;;;;;;2.60;1.15;;;17.60;99.90;;;;;;5042657;28;20025;-78
2023/07/04 09:54:33;;;;;;;2.97;0.98;;;17.60;99.90;;;;;;5033269;28;20017;-78
2023/07/04 09:57:20;;;;;;;10.50;6.15;;;17.50;99.90;;;;;;5027456;28;20037;-80
2023/07/04 09:59:46;;;;;;;3.10;1.27;;;17.40;99.90;;;;;;5029279;28;20024;-79
2023/07/04 10:02:33;;;;;;;3.35;1.38;;;17.40;99.90;;;;;;5046076;28;20033;-80
2023/07/04 10:05:00;;;;;;;1.08;0.85;;;17.50;99.90;;;;;;5015572;28;20037;-79
2023/07/04 10:07:26;;;;;;;2.03;1.00;;;17.60;99.90;;;;;;5047076;28;20024;-79
2023/07/04 10:10:04;;;;;;;2.63;0.75;;;17.70;99.90;;;;;;5025014;28;20025;-79
2023/07/04 10:12:43;;;;;;;3.55;1.20;;;18.00;99.90;;;;;;5027602;28;20029;-79
2023/07/04 10:15:09;;;;;;;1.35;0.50;;;18.30;99.90;;;;;;5026387;28;20021;-80
2023/07/04 10:17:36;;;;;;;1.73;1.00;;;18.60;99.90;;;;;;5048359;28;21020;-81
2023/07/04 10:20:12;;;;;;;3.13;0.70;;;18.80;99.90;;;;;;5041144;28;20658;-79
2023/07/04 10:22:45;;;;;;;1.90;0.82;;;19.10;99.90;;;;;;5028819;28;20063;-80
2023/07/04 10:25:16;;;;;;;2.72;0.75;;;19.20;99.90;;;;;;5022348;28;20479;-79
2023/07/04 10:27:46;;;;;;;2.17;0.70;;;19.20;99.90;;;;;;5048794;28;20032;-79
2023/07/04 10:30:18;;;;;;;3.78;1.13;;;19.20;99.90;;;;;;5042638;28;20094;-80
2023/07/04 10:32:49;;;;;;;1.42;0.93;;;19.30;99.90;;;;;;5044093;28;20105;-78
2023/07/04 10:35:21;;;;;;;2.45;0.70;;;19.30;99.90;;;;;;5043999;28;20042;-79
2023/07/04 10:37:51;;;;;;;1.38;0.70;;;19.40;99.90;;;;;;5034851;28;20013;-81
2023/07/04 10:40:19;;;;;;;2.58;0.63;;;19.40;99.90;;;;;;5030503;28;20079;-79
2023/07/04 10:43:07;;;;;;;4.20;0.93;;;19.20;99.90;;;;;;5046452;28;20401;-79
2023/07/04 10:45:34;;;;;;;3.47;0.73;;;19.00;99.90;;;;;;5042854;28;20471;-80
2023/07/04 10:48:04;;;;;;;2.17;0.63;;;19.00;99.90;;;;;;5030676;28;20017;-78
2023/07/04 10:50:35;;;;;;;0.55;0.52;;;18.90;99.90;;;;;;5048631;28;20017;-80
2023/07/04 10:53:02;;;;;;;2.60;0.77;;;18.90;99.90;;;;;;5046038;28;20045;-78
2023/07/04 10:55:35;;;;;;;1.13;0.80;;;19.00;99.90;;;;;;5042598;28;20036;-79
2023/07/04 10:58:22;;;;;;;3.58;0.70;;;19.20;99.90;;;;;;5028819;28;20329;-78
2023/07/04 11:01:03;;;;;;;3.22;1.10;;;19.00;98.90;;;;;;5044580;28;20033;-79
2023/07/04 11:03:41;;;;;;;0.40;0.40;;;18.60;97.90;;;;;;5041100;28;20510;-79
2023/07/04 11:06:12;;;;;;;1.13;0.50;;;17.90;97.70;;;;;;5031639;28;20388;-79
2023/07/04 11:08:40;;;;;;;1.38;0.63;;;17.40;99.30;;;;;;5045978;28;20041;-77
2023/07/04 11:11:12;;;;;;;2.55;0.85;;;17.10;99.70;;;;;;5044431;28;20467;-79
2023/07/04 11:13:53;;;;;;;2.25;0.60;;;16.80;99.60;;;;;;5028587;28;20025;-78
2023/07/04 11:16:26;;;;;;;0.47;0.30;;;16.60;99.90;;;;;;5043361;28;20033;-80
2023/07/04 11:19:03;;;;;;;0.70;0.70;;;16.70;99.90;;;;;;5030481;28;20039;-79
2023/07/04 11:21:29;;;;;;;1.17;0.57;;;16.70;99.90;;;;;;5043871;28;20037;-79
2023/07/04 11:24:15;;;;;;;2.08;0.43;;;16.60;99.90;;;;;;5047059;28;20578;-80
2023/07/04 11:26:54;;;;;;;1.05;0.70;;;16.80;99.90;;;;;;5036892;28;20026;-78
2023/07/04 11:29:22;;;;;;;0.82;0.60;;;16.80;99.90;;;;;;5047331;28;20025;-78
2023/07/04 11:32:02;;;;;;;0.40;0.40;;;16.80;99.90;;;;;;5044842;28;20522;-80
2023/07/04 11:34:50;;;;;;;1.35;0.60;;;16.80;99.90;;;;;;5050213;28;20043;-78
2023/07/04 11:37:37;;;;;;;1.23;0.60;;;16.90;99.90;;;;;;5020323;28;20029;-79
2023/07/04 11:40:16;;;;;;;2.72;0.90;;;17.00;99.90;;;;;;5031368;28;20104;-78
2023/07/04 11:42:47;;;;;;;2.67;1.13;;;17.00;99.90;;;;;;5044113;28;20091;-78
2023/07/04 11:45:15;;;;;;;2.10;0.50;;;17.10;99.90;;;;;;5048966;28;20022;-77
2023/07/04 11:47:43;;;;;;;1.27;0.50;;;17.10;99.90;;;;;;5045460;28;20439;-79
2023/07/04 11:50:16;;;;;;;1.50;0.73;;;16.90;99.90;;;;;;5034135;28;20032;-79
2023/07/04 11:52:45;;;;;;;1.85;0.95;;;16.60;99.90;;;;;;5037297;28;20091;-78
2023/07/04 11:55:17;;;;;;;1.42;1.10;;;16.50;99.90;;;;;;5045096;28;20029;-78
2023/07/04 11:58:01;;;;;;;1.30;0.57;;;16.40;99.90;;;;;;5046161;28;20155;-79
2023/07/04 12:00:30;;;;;;;0.85;0.70;;;16.40;99.90;;;;;;5031654;28;20116;-78
2023/07/04 12:02:57;;;;;;;2.28;0.50;;;16.40;99.90;;;;;;5026028;28;20057;-78
2023/07/04 12:05:31;;;;;;;1.33;0.82;;;16.30;99.90;;;;;;5040627;28;20022;-78
2023/07/04 12:08:03;;;;;;;0.85;0.50;;;16.40;99.90;;;;;;5040112;28;20393;-79
2023/07/04 12:10:30;;;;;;;2.08;0.40;;;16.50;99.90;;;;;;5043160;28;20025;-79
2023/07/04 12:13:02;;;;;;;1.13;0.45;;;16.60;99.90;;;;;;5028337;28;20036;-79
2023/07/04 12:15:30;;;;;;;0.70;0.52;;;16.70;99.90;;;;;;5043184;28;20017;-79
2023/07/04 12:17:59;;;;;;;1.80;0.60;;;16.70;99.90;;;;;;5049090;28;20021;-78
2023/07/04 12:20:28;;;;;;;1.27;0.60;;;16.70;99.90;;;;;;5023717;28;20059;-78
2023/07/04 12:23:00;;;;;;;0.68;0.57;;;16.60;99.90;;;;;;5032767;28;20369;-80
2023/07/04 12:25:27;;;;;;;1.17;0.55;;;16.70;99.90;;;;;;5042390;28;20017;-78
2023/07/04 12:28:02;;;;;;;0.60;0.50;;;16.70;99.90;;;;;;5052266;28;20017;-79
2023/07/04 12:30:28;;;;;;;0.70;0.40;;;16.70;99.90;;;;;;5040282;28;20552;-79
2023/07/04 12:32:53;;;;;;;1.65;0.65;;;16.70;99.90;;;;;;5034283;28;20056;-79
2023/07/04 12:35:29;;;;;;;1.38;0.50;;;16.50;99.90;;;;;;5043955;28;20021;-78
2023/07/04 12:37:57;;;;;;;2.17;0.60;;;16.50;99.90;;;;;;5045230;28;20024;-80
2023/07/04 12:40:28;;;;;;;1.08;0.60;;;16.30;99.90;;;;;;5046801;28;20095;-77
2023/07/04 12:42:55;;;;;;;4.30;0.73;;;15.80;99.90;;;;;;5037152;28;20017;-78
2023/07/04 12:45:24;;;;;;;1.80;0.70;;;15.30;99.90;;;;;;5046849;28;20025;-77
2023/07/04 12:47:54;;;;;;;1.27;0.60;;;14.90;99.90;;;;;;5029217;28;20366;-78
2023/07/04 12:50:21;;;;;;;2.00;0.77;;;14.60;99.90;;;;;;5031318;28;20032;-77
2023/07/04 12:52:49;;;;;;;0.90;0.60;;;14.30;99.90;;;;;;5043180;28;20017;-77
2023/07/04 12:55:36;;;;;;;1.73;1.00;;;14.10;99.90;;;;;;5038364;28;20037;-78
2023/07/04 12:58:05;;;;;;;1.80;0.50;;;14.10;99.90;;;;;;5044676;28;20654;-77